sensor_id;sensor_type;location;lat;lon;timestamp;pressure;altitude;pressure_sealevel;temperature;humidity
3294;BME280;1659;51.470;6.770;2023-02-18T00:00:52;102049.28;;;11.56;88.06
3294;BME280;1659;51.470;6.770;2023-02-18T00:03:19;102059.88;;;11.56;87.94
3294;BME280;1659;51.470;6.770;2023-02-18T00:05:45;102059.88;;;11.55;88.31
3294;BME280;1659;51.470;6.770;2023-02-18T00:08:13;102052.84;;;11.53;88.28
3294;BME280;1659;51.470;6.770;2023-02-18T00:10:40;102045.78;;;11.52;88.09
3294;BME280;1659;51.470;6.770;2023-02-18T00:13:06;102051.06;;;11.52;87.99
3294;BME280;1659;51.470;6.770;2023-02-18T00:15:33;102046.69;;;11.51;88.44
3294;BME280;1659;51.470;6.770;2023-02-18T00:18:00;102039.59;;;11.52;88.29
3294;BME280;1659;51.470;6.770;2023-02-18T00:20:27;102042.25;;;11.50;88.48
3294;BME280;1659;51.470;6.770;2023-02-18T00:22:53;102038.75;;;11.51;88.59
3294;BME280;1659;51.470;6.770;2023-02-18T00:25:21;102033.44;;;11.50;88.45
3294;BME280;1659;51.470;6.770;2023-02-18T00:27:47;102044.03;;;11.51;88.44
3294;BME280;1659;51.470;6.770;2023-02-18T00:30:14;102029.88;;;11.49;88.52
3294;BME280;1659;51.470;6.770;2023-02-18T00:32:41;102025.50;;;11.48;88.51
3294;BME280;1659;51.470;6.770;2023-02-18T00:35:08;102043.13;;;11.48;88.80
3294;BME280;1659;51.470;6.770;2023-02-18T00:37:34;102037.88;;;11.46;88.66
3294;BME280;1659;51.470;6.770;2023-02-18T00:40:01;102036.09;;;11.45;88.90
3294;BME280;1659;51.470;6.770;2023-02-18T00:42:29;102027.28;;;11.46;88.62
3294;BME280;1659;51.470;6.770;2023-02-18T00:44:55;102020.19;;;11.45;88.73
3294;BME280;1659;51.470;6.770;2023-02-18T00:47:22;102007.84;;;11.44;88.82
3294;BME280;1659;51.470;6.770;2023-02-18T00:49:48;102014.03;;;11.45;89.14
3294;BME280;1659;51.470;6.770;2023-02-18T00:52:15;102008.75;;;11.43;88.78
3294;BME280;1659;51.470;6.770;2023-02-18T00:54:42;102006.09;;;11.43;89.19
3294;BME280;1659;51.470;6.770;2023-02-18T00:57:08;102004.31;;;11.42;89.09
3294;BME280;1659;51.470;6.770;2023-02-18T00:59:36;101999.94;;;11.41;88.94
3294;BME280;1659;51.470;6.770;2023-02-18T01:02:02;101995.50;;;11.40;89.19
3294;BME280;1659;51.470;6.770;2023-02-18T01:04:31;101985.78;;;11.39;89.15
3294;BME280;1659;51.470;6.770;2023-02-18T01:06:58;101986.69;;;11.38;89.29
3294;BME280;1659;51.470;6.770;2023-02-18T01:09:24;101984.06;;;11.38;89.42
3294;BME280;1659;51.470;6.770;2023-02-18T01:11:51;102008.75;;;11.37;89.19
3294;BME280;1659;51.470;6.770;2023-02-18T01:14:17;101996.41;;;11.36;89.58
3294;BME280;1659;51.470;6.770;2023-02-18T01:16:45;101992.00;;;11.38;89.54
3294;BME280;1659;51.470;6.770;2023-02-18T01:19:12;102003.44;;;11.39;89.88
3294;BME280;1659;51.470;6.770;2023-02-18T01:21:38;101989.34;;;11.38;89.69
3294;BME280;1659;51.470;6.770;2023-02-18T01:24:05;101986.69;;;11.38;89.76
3294;BME280;1659;51.470;6.770;2023-02-18T01:26:32;101999.06;;;11.38;89.50
3294;BME280;1659;51.470;6.770;2023-02-18T01:28:58;101987.56;;;11.37;89.94
3294;BME280;1659;51.470;6.770;2023-02-18T01:31:25;101982.28;;;11.36;90.15
3294;BME280;1659;51.470;6.770;2023-02-18T01:33:53;101977.00;;;11.34;90.16
3294;BME280;1659;51.470;6.770;2023-02-18T01:36:20;101981.41;;;11.33;90.01
3294;BME280;1659;51.470;6.770;2023-02-18T01:38:46;101971.72;;;11.31;90.12
3294;BME280;1659;51.470;6.770;2023-02-18T01:41:13;101965.53;;;11.30;90.17
3294;BME280;1659;51.470;6.770;2023-02-18T01:43:39;101959.38;;;11.30;90.04
3294;BME280;1659;51.470;6.770;2023-02-18T01:46:15;101964.66;;;11.30;90.39
3294;BME280;1659;51.470;6.770;2023-02-18T01:48:46;101966.44;;;11.28;90.45
3294;BME280;1659;51.470;6.770;2023-02-18T01:51:17;101964.66;;;11.27;90.41
3294;BME280;1659;51.470;6.770;2023-02-18T01:53:49;101960.25;;;11.27;90.23
3294;BME280;1659;51.470;6.770;2023-02-18T01:56:23;101955.84;;;11.26;90.65
3294;BME280;1659;51.470;6.770;2023-02-18T01:58:51;101960.25;;;11.26;90.75
3294;BME280;1659;51.470;6.770;2023-02-18T02:01:19;101956.72;;;11.28;90.66
3294;BME280;1659;51.470;6.770;2023-02-18T02:03:46;101954.97;;;11.27;90.77
3294;BME280;1659;51.470;6.770;2023-02-18T02:06:16;101960.25;;;11.27;90.88
3294;BME280;1659;51.470;6.770;2023-02-18T02:08:44;101944.38;;;11.27;90.89
3294;BME280;1659;51.470;6.770;2023-02-18T02:11:22;101947.91;;;11.28;90.51
3294;BME280;1659;51.470;6.770;2023-02-18T02:14:12;101946.13;;;11.27;90.80
3294;BME280;1659;51.470;6.770;2023-02-18T02:16:44;101944.38;;;11.27;90.69
3294;BME280;1659;51.470;6.770;2023-02-18T02:19:37;101939.97;;;11.26;90.73
3294;BME280;1659;51.470;6.770;2023-02-18T02:22:49;101941.75;;;11.26;90.75
3294;BME280;1659;51.470;6.770;2023-02-18T02:25:34;101939.09;;;11.24;90.56
3294;BME280;1659;51.470;6.770;2023-02-18T02:28:42;101938.22;;;11.24;90.67
3294;BME280;1659;51.470;6.770;2023-02-18T02:31:47;101925.88;;;11.24;90.75
3294;BME280;1659;51.470;6.770;2023-02-18T02:34:42;101939.09;;;11.24;90.72
3294;BME280;1659;51.470;6.770;2023-02-18T02:37:15;101923.22;;;11.21;90.87
3294;BME280;1659;51.470;6.770;2023-02-18T02:39:54;101925.00;;;11.21;91.15
3294;BME280;1659;51.470;6.770;2023-02-18T02:42:29;101922.34;;;11.19;91.17
3294;BME280;1659;51.470;6.770;2023-02-18T02:45:05;101920.56;;;11.20;91.04
3294;BME280;1659;51.470;6.770;2023-02-18T02:47:40;101921.47;;;11.19;91.25
3294;BME280;1659;51.470;6.770;2023-02-18T02:50:13;101925.00;;;11.19;91.37
3294;BME280;1659;51.470;6.770;2023-02-18T02:52:45;101914.41;;;11.16;91.43
3294;BME280;1659;51.470;6.770;2023-02-18T02:55:13;101918.84;;;11.14;91.52
3294;BME280;1659;51.470;6.770;2023-02-18T02:57:47;101917.97;;;11.12;91.43
3294;BME280;1659;51.470;6.770;2023-02-18T03:00:16;101910.03;;;11.10;91.66
3294;BME280;1659;51.470;6.770;2023-02-18T03:03:05;101899.44;;;11.07;91.92
3294;BME280;1659;51.470;6.770;2023-02-18T03:05:47;101889.78;;;11.06;92.12
3294;BME280;1659;51.470;6.770;2023-02-18T03:08:28;101891.50;;;11.04;92.24
3294;BME280;1659;51.470;6.770;2023-02-18T03:11:02;101880.97;;;11.01;91.93
3294;BME280;1659;51.470;6.770;2023-02-18T03:13:44;101872.16;;;10.98;92.19
3294;BME280;1659;51.470;6.770;2023-02-18T03:16:18;101880.97;;;10.92;92.59
3294;BME280;1659;51.470;6.770;2023-02-18T03:18:53;101864.22;;;10.87;93.08
3294;BME280;1659;51.470;6.770;2023-02-18T03:21:26;101864.25;;;10.82;93.00
3294;BME280;1659;51.470;6.770;2023-02-18T03:23:57;101860.75;;;10.79;93.12
3294;BME280;1659;51.470;6.770;2023-02-18T03:26:27;101855.44;;;10.77;93.54
3294;BME280;1659;51.470;6.770;2023-02-18T03:28:59;101857.22;;;10.76;93.62
3294;BME280;1659;51.470;6.770;2023-02-18T03:31:29;101854.59;;;10.76;93.76
3294;BME280;1659;51.470;6.770;2023-02-18T03:34:00;101847.53;;;10.77;93.67
3294;BME280;1659;51.470;6.770;2023-02-18T03:36:30;101847.53;;;10.77;93.85
3294;BME280;1659;51.470;6.770;2023-02-18T03:38:59;101840.47;;;10.77;94.02
3294;BME280;1659;51.470;6.770;2023-02-18T03:41:28;101836.94;;;10.79;94.12
3294;BME280;1659;51.470;6.770;2023-02-18T03:43:58;101833.41;;;10.80;94.27
3294;BME280;1659;51.470;6.770;2023-02-18T03:46:26;101828.09;;;10.80;94.25
3294;BME280;1659;51.470;6.770;2023-02-18T03:48:52;101827.25;;;10.81;94.64
3294;BME280;1659;51.470;6.770;2023-02-18T03:51:19;101830.75;;;10.81;94.68
3294;BME280;1659;51.470;6.770;2023-02-18T03:53:47;101816.66;;;10.81;94.58
3294;BME280;1659;51.470;6.770;2023-02-18T03:56:14;101818.44;;;10.82;94.56
3294;BME280;1659;51.470;6.770;2023-02-18T03:58:41;101819.31;;;10.82;95.02
3294;BME280;1659;51.470;6.770;2023-02-18T04:01:07;101806.97;;;10.81;94.94
3294;BME280;1659;51.470;6.770;2023-02-18T04:03:34;101814.03;;;10.82;94.92
3294;BME280;1659;51.470;6.770;2023-02-18T04:06:00;101818.41;;;10.85;95.25
3294;BME280;1659;51.470;6.770;2023-02-18T04:08:27;101809.59;;;10.86;95.10
3294;BME280;1659;51.470;6.770;2023-02-18T04:10:55;101806.94;;;10.86;95.09
3294;BME280;1659;51.470;6.770;2023-02-18T04:13:22;101795.47;;;10.87;95.03
3294;BME280;1659;51.470;6.770;2023-02-18T04:15:49;101800.75;;;10.88;95.34
3294;BME280;1659;51.470;6.770;2023-02-18T04:18:16;101798.13;;;10.90;95.38
3294;BME280;1659;51.470;6.770;2023-02-18T04:20:43;101799.00;;;10.90;95.07
3294;BME280;1659;51.470;6.770;2023-02-18T04:23:10;101791.03;;;10.92;95.32
3294;BME280;1659;51.470;6.770;2023-02-18T04:25:37;101787.53;;;10.90;95.41
3294;BME280;1659;51.470;6.770;2023-02-18T04:28:05;101792.81;;;10.90;95.63
3294;BME280;1659;51.470;6.770;2023-02-18T04:30:32;101774.31;;;10.90;95.51
3294;BME280;1659;51.470;6.770;2023-02-18T04:32:58;101777.88;;;10.89;95.91
3294;BME280;1659;51.470;6.770;2023-02-18T04:35:25;101784.03;;;10.88;95.73
3294;BME280;1659;51.470;6.770;2023-02-18T04:37:51;101774.31;;;10.87;95.51
3294;BME280;1659;51.470;6.770;2023-02-18T04:40:18;101776.13;;;10.82;95.52
3294;BME280;1659;51.470;6.770;2023-02-18T04:42:45;101774.41;;;10.73;95.99
3294;BME280;1659;51.470;6.770;2023-02-18T04:45:12;101769.97;;;10.66;96.06
3294;BME280;1659;51.470;6.770;2023-02-18T04:47:39;101775.31;;;10.60;96.41
3294;BME280;1659;51.470;6.770;2023-02-18T04:50:07;101765.63;;;10.55;96.53
3294;BME280;1659;51.470;6.770;2023-02-18T04:52:33;101774.44;;;10.50;96.65
3294;BME280;1659;51.470;6.770;2023-02-18T04:55:00;101769.19;;;10.45;96.70
3294;BME280;1659;51.470;6.770;2023-02-18T04:57:26;101763.91;;;10.41;97.39
3294;BME280;1659;51.470;6.770;2023-02-18T04:59:53;101760.38;;;10.38;97.66
3294;BME280;1659;51.470;6.770;2023-02-18T05:02:21;101764.78;;;10.36;97.98
3294;BME280;1659;51.470;6.770;2023-02-18T05:04:47;101756.00;;;10.34;98.04
3294;BME280;1659;51.470;6.770;2023-02-18T05:07:14;101754.22;;;10.32;98.46
3294;BME280;1659;51.470;6.770;2023-02-18T05:09:40;101746.25;;;10.30;98.94
3294;BME280;1659;51.470;6.770;2023-02-18T05:12:07;101744.53;;;10.29;99.07
3294;BME280;1659;51.470;6.770;2023-02-18T05:14:34;101746.25;;;10.27;99.32
3294;BME280;1659;51.470;6.770;2023-02-18T05:17:00;101741.88;;;10.26;99.61
3294;BME280;1659;51.470;6.770;2023-02-18T05:19:28;101738.38;;;10.24;99.64
3294;BME280;1659;51.470;6.770;2023-02-18T05:21:55;101736.59;;;10.25;99.87
3294;BME280;1659;51.470;6.770;2023-02-18T05:24:21;101737.47;;;10.25;100.00
3294;BME280;1659;51.470;6.770;2023-02-18T05:26:48;101731.31;;;10.25;100.00
3294;BME280;1659;51.470;6.770;2023-02-18T05:29:15;101726.03;;;10.23;100.00
3294;BME280;1659;51.470;6.770;2023-02-18T05:31:41;101720.75;;;10.23;100.00
3294;BME280;1659;51.470;6.770;2023-02-18T05:34:08;101725.16;;;10.24;100.00
3294;BME280;1659;51.470;6.770;2023-02-18T05:36:37;101714.59;;;10.24;100.00
3294;BME280;1659;51.470;6.770;2023-02-18T05:39:03;101704.88;;;10.25;100.00
3294;BME280;1659;51.470;6.770;2023-02-18T05:41:30;101712.81;;;10.26;100.00
3294;BME280;1659;51.470;6.770;2023-02-18T05:43:56;101704.00;;;10.27;100.00
3294;BME280;1659;51.470;6.770;2023-02-18T05:46:40;101692.56;;;10.27;100.00
3294;BME280;1659;51.470;6.770;2023-02-18T05:49:07;101689.03;;;10.28;100.00
3294;BME280;1659;51.470;6.770;2023-02-18T05:51:33;101682.84;;;10.27;100.00
3294;BME280;1659;51.470;6.770;2023-02-18T05:54:01;101682.00;;;10.27;100.00
3294;BME280;1659;51.470;6.770;2023-02-18T05:56:28;101690.78;;;10.27;100.00
3294;BME280;1659;51.470;6.770;2023-02-18T05:58:54;101691.69;;;10.26;100.00
3294;BME280;1659;51.470;6.770;2023-02-18T06:01:21;101678.47;;;10.25;100.00
3294;BME280;1659;51.470;6.770;2023-02-18T06:03:48;101693.47;;;10.24;100.00
3294;BME280;1659;51.470;6.770;2023-02-18T06:06:14;101682.88;;;10.24;100.00
3294;BME280;1659;51.470;6.770;2023-02-18T06:08:41;101681.13;;;10.25;100.00
3294;BME280;1659;51.470;6.770;2023-02-18T06:11:09;101680.25;;;10.26;100.00
3294;BME280;1659;51.470;6.770;2023-02-18T06:13:35;101669.66;;;10.27;100.00
3294;BME280;1659;51.470;6.770;2023-02-18T06:16:02;101678.47;;;10.28;100.00
3294;BME280;1659;51.470;6.770;2023-02-18T06:18:29;101677.56;;;10.27;100.00
3294;BME280;1659;51.470;6.770;2023-02-18T06:20:55;101677.56;;;10.27;100.00
3294;BME280;1659;51.470;6.770;2023-02-18T06:23:22;101669.69;;;10.26;100.00
3294;BME280;1659;51.470;6.770;2023-02-18T06:25:48;101663.50;;;10.27;100.00
3294;BME280;1659;51.470;6.770;2023-02-18T06:28:17;101664.41;;;10.26;100.00
3294;BME280;1659;51.470;6.770;2023-02-18T06:30:44;101670.56;;;10.23;100.00
3294;BME280;1659;51.470;6.770;2023-02-18T06:33:10;101655.59;;;10.20;100.00
3294;BME280;1659;51.470;6.770;2023-02-18T06:35:37;101674.09;;;10.20;100.00
3294;BME280;1659;51.470;6.770;2023-02-18T06:38:03;101683.75;;;10.20;100.00
3294;BME280;1659;51.470;6.770;2023-02-18T06:40:30;101686.41;;;10.18;100.00
3294;BME280;1659;51.470;6.770;2023-02-18T06:42:56;101690.81;;;10.18;100.00
3294;BME280;1659;51.470;6.770;2023-02-18T06:45:24;101682.88;;;10.15;100.00
3294;BME280;1659;51.470;6.770;2023-02-18T06:47:51;101681.16;;;10.14;100.00
3294;BME280;1659;51.470;6.770;2023-02-18T06:50:18;101689.06;;;10.14;100.00
3294;BME280;1659;51.470;6.770;2023-02-18T06:52:44;101692.59;;;10.13;100.00
3294;BME280;1659;51.470;6.770;2023-02-18T06:55:11;101700.50;;;10.13;100.00
3294;BME280;1659;51.470;6.770;2023-02-18T06:57:38;101689.94;;;10.11;100.00
3294;BME280;1659;51.470;6.770;2023-02-18T07:00:05;101679.38;;;10.10;100.00
3294;BME280;1659;51.470;6.770;2023-02-18T07:02:34;101685.56;;;10.10;100.00
3294;BME280;1659;51.470;6.770;2023-02-18T07:05:00;101678.50;;;10.09;100.00
3294;BME280;1659;51.470;6.770;2023-02-18T07:07:27;101669.72;;;10.09;100.00
3294;BME280;1659;51.470;6.770;2023-02-18T07:09:53;101671.47;;;10.08;100.00
3294;BME280;1659;51.470;6.770;2023-02-18T07:12:20;101675.88;;;10.08;100.00
3294;BME280;1659;51.470;6.770;2023-02-18T07:14:46;101674.13;;;10.07;100.00
3294;BME280;1659;51.470;6.770;2023-02-18T07:17:13;101681.16;;;10.06;100.00
3294;BME280;1659;51.470;6.770;2023-02-18T07:19:41;101682.91;;;10.06;100.00
3294;BME280;1659;51.470;6.770;2023-02-18T07:22:08;101691.72;;;10.06;100.00
3294;BME280;1659;51.470;6.770;2023-02-18T07:24:34;101695.25;;;10.07;100.00
3294;BME280;1659;51.470;6.770;2023-02-18T07:27:01;101707.56;;;10.08;100.00
3294;BME280;1659;51.470;6.770;2023-02-18T07:29:28;101709.31;;;10.09;100.00
3294;BME280;1659;51.470;6.770;2023-02-18T07:31:54;101702.28;;;10.09;100.00
3294;BME280;1659;51.470;6.770;2023-02-18T07:34:21;101704.91;;;10.09;100.00
3294;BME280;1659;51.470;6.770;2023-02-18T07:36:49;101708.44;;;10.11;100.00
3294;BME280;1659;51.470;6.770;2023-02-18T07:39:16;101703.16;;;10.13;100.00
3294;BME280;1659;51.470;6.770;2023-02-18T07:41:45;101720.78;;;10.15;100.00
3294;BME280;1659;51.470;6.770;2023-02-18T07:44:11;101711.06;;;10.19;100.00
3294;BME280;1659;51.470;6.770;2023-02-18T07:46:38;101704.03;;;10.23;100.00
3294;BME280;1659;51.470;6.770;2023-02-18T07:49:05;101700.47;;;10.25;100.00
3294;BME280;1659;51.470;6.770;2023-02-18T07:51:32;101686.41;;;10.29;100.00
3294;BME280;1659;51.470;6.770;2023-02-18T07:54:00;101689.03;;;10.34;100.00
3294;BME280;1659;51.470;6.770;2023-02-18T07:56:27;101695.19;;;10.36;100.00
3294;BME280;1659;51.470;6.770;2023-02-18T07:58:53;101718.09;;;10.37;100.00
3294;BME280;1659;51.470;6.770;2023-02-18T08:01:20;101726.03;;;10.38;100.00
3294;BME280;1659;51.470;6.770;2023-02-18T08:03:46;101718.97;;;10.36;100.00
3294;BME280;1659;51.470;6.770;2023-02-18T08:06:20;101733.09;;;10.32;100.00
3294;BME280;1659;51.470;6.770;2023-02-18T08:08:47;101731.31;;;10.29;100.00
3294;BME280;1659;51.470;6.770;2023-02-18T08:11:14;101740.09;;;10.27;100.00
3294;BME280;1659;51.470;6.770;2023-02-18T08:13:41;101725.16;;;10.24;100.00
3294;BME280;1659;51.470;6.770;2023-02-18T08:16:08;101733.09;;;10.23;100.00
3294;BME280;1659;51.470;6.770;2023-02-18T08:18:34;101726.03;;;10.25;100.00
3294;BME280;1659;51.470;6.770;2023-02-18T08:21:01;101720.75;;;10.28;100.00
3294;BME280;1659;51.470;6.770;2023-02-18T08:23:28;101720.75;;;10.32;100.00
3294;BME280;1659;51.470;6.770;2023-02-18T08:25:54;101710.19;;;10.34;100.00
3294;BME280;1659;51.470;6.770;2023-02-18T08:28:23;101708.44;;;10.34;100.00
3294;BME280;1659;51.470;6.770;2023-02-18T08:30:51;101726.03;;;10.34;100.00
3294;BME280;1659;51.470;6.770;2023-02-18T08:33:18;101725.13;;;10.44;100.00
3294;BME280;1659;51.470;6.770;2023-02-18T08:35:46;101733.97;;;10.42;100.00
3294;BME280;1659;51.470;6.770;2023-02-18T08:38:14;101733.97;;;10.35;100.00
3294;BME280;1659;51.470;6.770;2023-02-18T08:40:40;101726.91;;;10.27;100.00
3294;BME280;1659;51.470;6.770;2023-02-18T08:43:07;101727.78;;;10.19;100.00
3294;BME280;1659;51.470;6.770;2023-02-18T08:45:35;101722.53;;;10.12;100.00
3294;BME280;1659;51.470;6.770;2023-02-18T08:48:02;101728.69;;;10.08;100.00
3294;BME280;1659;51.470;6.770;2023-02-18T08:50:29;101723.41;;;10.08;100.00
3294;BME280;1659;51.470;6.770;2023-02-18T08:52:55;101723.41;;;10.08;100.00
3294;BME280;1659;51.470;6.770;2023-02-18T08:55:24;101733.97;;;10.06;100.00
3294;BME280;1659;51.470;6.770;2023-02-18T08:57:51;101730.44;;;10.06;100.00
3294;BME280;1659;51.470;6.770;2023-02-18T09:00:19;101724.31;;;10.05;100.00
3294;BME280;1659;51.470;6.770;2023-02-18T09:02:46;101715.47;;;10.05;100.00
3294;BME280;1659;51.470;6.770;2023-02-18T09:05:13;101719.00;;;10.02;99.74
3294;BME280;1659;51.470;6.770;2023-02-18T09:07:40;101712.88;;;10.01;99.62
3294;BME280;1659;51.470;6.770;2023-02-18T09:10:07;101734.00;;;10.01;98.93
3294;BME280;1659;51.470;6.770;2023-02-18T09:12:34;101717.25;;;10.01;98.55
3294;BME280;1659;51.470;6.770;2023-02-18T09:15:01;101715.50;;;10.00;98.27
3294;BME280;1659;51.470;6.770;2023-02-18T09:17:29;101712.84;;;9.98;97.83
3294;BME280;1659;51.470;6.770;2023-02-18T09:19:57;101715.50;;;9.97;97.66
3294;BME280;1659;51.470;6.770;2023-02-18T09:22:23;101720.78;;;9.95;97.67
3294;BME280;1659;51.470;6.770;2023-02-18T09:24:50;101728.69;;;9.97;97.63
3294;BME280;1659;51.470;6.770;2023-02-18T09:27:16;101735.75;;;9.96;97.76
3294;BME280;1659;51.470;6.770;2023-02-18T09:29:43;101718.13;;;9.97;97.65
3294;BME280;1659;51.470;6.770;2023-02-18T09:32:09;101725.19;;;9.98;97.00
3294;BME280;1659;51.470;6.770;2023-02-18T09:34:36;101727.84;;;9.99;97.00
3294;BME280;1659;51.470;6.770;2023-02-18T09:37:04;101717.25;;;10.01;96.94
3294;BME280;1659;51.470;6.770;2023-02-18T09:39:31;101708.44;;;10.04;96.56
3294;BME280;1659;51.470;6.770;2023-02-18T09:42:00;101724.31;;;10.05;96.36
3294;BME280;1659;51.470;6.770;2023-02-18T09:44:31;101711.97;;;10.04;96.08
3294;BME280;1659;51.470;6.770;2023-02-18T09:47:02;101707.56;;;10.09;95.96
3294;BME280;1659;51.470;6.770;2023-02-18T09:49:33;101715.47;;;10.12;95.51
3294;BME280;1659;51.470;6.770;2023-02-18T09:52:05;101716.34;;;10.16;94.73
3294;BME280;1659;51.470;6.770;2023-02-18T09:54:33;101712.81;;;10.20;94.56
3294;BME280;1659;51.470;6.770;2023-02-18T09:57:00;101704.03;;;10.24;94.57
3294;BME280;1659;51.470;6.770;2023-02-18T09:59:28;101695.19;;;10.28;94.32
3294;BME280;1659;51.470;6.770;2023-02-18T10:01:56;101701.38;;;10.32;93.53
3294;BME280;1659;51.470;6.770;2023-02-18T10:04:27;101706.66;;;10.35;93.47
3294;BME280;1659;51.470;6.770;2023-02-18T10:06:55;101705.75;;;10.36;93.08
3294;BME280;1659;51.470;6.770;2023-02-18T10:09:26;101707.53;;;10.35;93.14
3294;BME280;1659;51.470;6.770;2023-02-18T10:11:55;101708.41;;;10.37;92.71
3294;BME280;1659;51.470;6.770;2023-02-18T10:14:24;101708.41;;;10.37;92.59
3294;BME280;1659;51.470;6.770;2023-02-18T10:16:51;101713.69;;;10.37;92.57
3294;BME280;1659;51.470;6.770;2023-02-18T10:19:22;101711.06;;;10.34;92.31
3294;BME280;1659;51.470;6.770;2023-02-18T10:21:50;101713.72;;;10.33;92.38
3294;BME280;1659;51.470;6.770;2023-02-18T10:24:27;101710.13;;;10.31;92.79
3294;BME280;1659;51.470;6.770;2023-02-18T10:26:55;101716.34;;;10.30;92.40
3294;BME280;1659;51.470;6.770;2023-02-18T10:29:22;101727.78;;;10.29;92.45
3294;BME280;1659;51.470;6.770;2023-02-18T10:31:52;101732.19;;;10.24;92.22
3294;BME280;1659;51.470;6.770;2023-02-18T10:34:24;101731.31;;;10.20;92.69
3294;BME280;1659;51.470;6.770;2023-02-18T10:37:00;101737.47;;;10.13;92.88
3294;BME280;1659;51.470;6.770;2023-02-18T10:39:44;101727.81;;;10.09;93.33
3294;BME280;1659;51.470;6.770;2023-02-18T10:42:25;101733.97;;;10.05;93.83
3294;BME280;1659;51.470;6.770;2023-02-18T10:45:03;101743.66;;;10.04;94.37
3294;BME280;1659;51.470;6.770;2023-02-18T10:47:37;101745.41;;;10.00;94.40
3294;BME280;1659;51.470;6.770;2023-02-18T10:50:09;101740.16;;;9.94;94.47
3294;BME280;1659;51.470;6.770;2023-02-18T10:52:39;101748.06;;;9.88;94.84
3294;BME280;1659;51.470;6.770;2023-02-18T10:55:11;101758.66;;;9.82;95.48
3294;BME280;1659;51.470;6.770;2023-02-18T10:57:47;101756.84;;;9.75;95.63
3294;BME280;1659;51.470;6.770;2023-02-18T11:00:17;101756.88;;;9.69;96.09
3294;BME280;1659;51.470;6.770;2023-02-18T11:02:44;101763.00;;;9.66;96.49
3294;BME280;1659;51.470;6.770;2023-02-18T11:05:18;101763.91;;;9.63;96.69
3294;BME280;1659;51.470;6.770;2023-02-18T11:07:49;101765.66;;;9.61;97.19
3294;BME280;1659;51.470;6.770;2023-02-18T11:10:22;101770.03;;;9.62;97.26
3294;BME280;1659;51.470;6.770;2023-02-18T11:12:50;101767.38;;;9.61;97.71
3294;BME280;1659;51.470;6.770;2023-02-18T11:15:22;101755.97;;;9.62;97.99
3294;BME280;1659;51.470;6.770;2023-02-18T11:17:51;101765.66;;;9.58;98.26
3294;BME280;1659;51.470;6.770;2023-02-18T11:20:29;101764.78;;;9.58;98.20
3294;BME280;1659;51.470;6.770;2023-02-18T11:22:59;101770.06;;;9.58;98.63
3294;BME280;1659;51.470;6.770;2023-02-18T11:25:41;101762.16;;;9.59;98.82
3294;BME280;1659;51.470;6.770;2023-02-18T11:28:40;101758.63;;;9.63;99.12
3294;BME280;1659;51.470;6.770;2023-02-18T11:31:07;101760.38;;;9.61;99.38
3294;BME280;1659;51.470;6.770;2023-02-18T11:33:38;101749.81;;;9.60;99.32
3294;BME280;1659;51.470;6.770;2023-02-18T11:36:16;101755.97;;;9.60;99.84
3294;BME280;1659;51.470;6.770;2023-02-18T11:38:46;101765.66;;;9.63;100.00
3294;BME280;1659;51.470;6.770;2023-02-18T11:41:17;101764.75;;;9.62;100.00
3294;BME280;1659;51.470;6.770;2023-02-18T11:43:46;101769.19;;;9.63;100.00
3294;BME280;1659;51.470;6.770;2023-02-18T11:46:17;101758.63;;;9.62;100.00
3294;BME280;1659;51.470;6.770;2023-02-18T11:48:44;101756.88;;;9.59;100.00
3294;BME280;1659;51.470;6.770;2023-02-18T11:51:15;101748.94;;;9.59;100.00
3294;BME280;1659;51.470;6.770;2023-02-18T11:53:54;101751.59;;;9.59;100.00
3294;BME280;1659;51.470;6.770;2023-02-18T11:56:26;101755.97;;;9.62;100.00
3294;BME280;1659;51.470;6.770;2023-02-18T11:58:54;101753.34;;;9.65;100.00
3294;BME280;1659;51.470;6.770;2023-02-18T12:01:30;101758.63;;;9.67;100.00
3294;BME280;1659;51.470;6.770;2023-02-18T12:04:05;101759.50;;;9.67;100.00
3294;BME280;1659;51.470;6.770;2023-02-18T12:06:36;101751.59;;;9.67;100.00
3294;BME280;1659;51.470;6.770;2023-02-18T12:09:06;101756.00;;;9.68;100.00
3294;BME280;1659;51.470;6.770;2023-02-18T12:11:37;101753.34;;;9.67;100.00
3294;BME280;1659;51.470;6.770;2023-02-18T12:14:17;101743.66;;;9.67;100.00
3294;BME280;1659;51.470;6.770;2023-02-18T12:16:53;101744.53;;;9.69;100.00
3294;BME280;1659;51.470;6.770;2023-02-18T12:19:41;101745.41;;;9.71;100.00
3294;BME280;1659;51.470;6.770;2023-02-18T12:22:17;101732.22;;;9.73;100.00
3294;BME280;1659;51.470;6.770;2023-02-18T12:24:57;101748.97;;;9.72;100.00
3294;BME280;1659;51.470;6.770;2023-02-18T12:27:36;101738.41;;;9.72;100.00
3294;BME280;1659;51.470;6.770;2023-02-18T12:30:27;101743.66;;;9.75;100.00
3294;BME280;1659;51.470;6.770;2023-02-18T12:33:04;101745.44;;;9.77;100.00
3294;BME280;1659;51.470;6.770;2023-02-18T12:35:44;101741.91;;;9.81;100.00
3294;BME280;1659;51.470;6.770;2023-02-18T12:41:32;101740.13;;;9.83;100.00
3294;BME280;1659;51.470;6.770;2023-02-18T12:44:12;101735.75;;;9.84;100.00
3294;BME280;1659;51.470;6.770;2023-02-18T12:46:58;101728.72;;;9.86;100.00
3294;BME280;1659;51.470;6.770;2023-02-18T12:52:38;101741.00;;;9.89;100.00
3294;BME280;1659;51.470;6.770;2023-02-18T12:55:41;101738.38;;;9.90;100.00
3294;BME280;1659;51.470;6.770;2023-02-18T12:58:22;101722.53;;;9.89;100.00
3294;BME280;1659;51.470;6.770;2023-02-18T13:01:02;101734.00;;;9.91;100.00
3294;BME280;1659;51.470;6.770;2023-02-18T13:06:52;101729.59;;;9.88;100.00
3294;BME280;1659;51.470;6.770;2023-02-18T13:09:31;101726.94;;;9.88;100.00
3294;BME280;1659;51.470;6.770;2023-02-18T13:12:06;101721.66;;;9.90;100.00
3294;BME280;1659;51.470;6.770;2023-02-18T13:14:38;101726.06;;;9.92;100.00
3294;BME280;1659;51.470;6.770;2023-02-18T13:17:10;101731.34;;;9.92;100.00
3294;BME280;1659;51.470;6.770;2023-02-18T13:19:42;101733.09;;;9.93;100.00
3294;BME280;1659;51.470;6.770;2023-02-18T13:22:11;101731.34;;;9.94;100.00
3294;BME280;1659;51.470;6.770;2023-02-18T13:24:42;101735.75;;;9.93;100.00
3294;BME280;1659;51.470;6.770;2023-02-18T13:27:20;101735.75;;;9.93;100.00
3294;BME280;1659;51.470;6.770;2023-02-18T13:29:51;101739.25;;;9.92;100.00
3294;BME280;1659;51.470;6.770;2023-02-18T13:32:28;101743.66;;;9.92;100.00
3294;BME280;1659;51.470;6.770;2023-02-18T13:35:01;101739.28;;;9.91;100.00